Villa Linda, Puerto Rico
Current Conditions -  °F | °C
As of 12:50 PM on Saturday 25 Oct 2014 (Local Time) from TJBQ Reporting Station
Scattered Clouds Scattered Clouds  
Wind Chill: 88°   Ceiling: Unl
Heat Index: 96°   Visibility: 10mi
Dew Point: 73°   Wind: 5mph
Humidity: 62%   Direction: 50°NE
Pressure: 29.89"   Gusts: NA
Location:  18.4409°N, 67.1508°W
Report Text: TJBQ 251650Z 05004KT 10SM SCT030 31/23 A2989 RMK RWY08 - ATIS U
Loading
Personal Weather Stations






























Interactive Weather Map
Tropical Storm Tracking
New forecast layout! Learn more

10-Day Weather Forecast

Advertisements
Track Severe Weather on mobile